createdAt,value
2017-11-28T00:00:10.640Z,7.29
2017-11-28T00:02:38.288Z,7.30
2017-11-28T00:05:05.952Z,7.29
2017-11-28T00:07:33.539Z,7.23
2017-11-28T00:10:01.277Z,7.22
2017-11-28T00:12:28.872Z,7.19
2017-11-28T00:14:56.481Z,7.19
2017-11-28T00:17:24.084Z,7.22
2017-11-28T00:19:51.684Z,7.15
2017-11-28T00:22:19.319Z,7.19
2017-11-28T00:24:46.933Z,7.16
2017-11-28T00:27:14.523Z,7.12
2017-11-28T00:29:42.158Z,7.14
2017-11-28T00:32:09.732Z,7.13
2017-11-28T00:34:37.335Z,7.10
2017-11-28T00:37:04.917Z,7.09
2017-11-28T00:39:32.544Z,7.13
2017-11-28T00:42:00.124Z,7.13
2017-11-28T00:44:27.751Z,7.12
2017-11-28T00:46:55.335Z,7.15
2017-11-28T00:49:22.942Z,7.16
2017-11-28T00:51:50.529Z,7.16
2017-11-28T00:54:18.138Z,7.08
2017-11-28T00:56:45.712Z,7.08
2017-11-28T00:59:13.319Z,7.06
2017-11-28T01:01:40.900Z,7.08
2017-11-28T01:04:08.516Z,7.05
2017-11-28T01:06:36.096Z,7.03
2017-11-28T01:09:03.708Z,7.04
2017-11-28T01:11:31.280Z,7.03
2017-11-28T01:13:59.037Z,7.06
2017-11-28T01:16:26.612Z,7.07
2017-11-28T01:18:54.217Z,7.05
2017-11-28T01:21:21.913Z,7.06
2017-11-28T01:23:49.533Z,7.07
2017-11-28T01:26:17.117Z,7.06
2017-11-28T01:28:44.740Z,7.03
2017-11-28T01:31:14.021Z,7.05
2017-11-28T01:33:41.636Z,7.05
2017-11-28T01:36:09.206Z,7.08
2017-11-28T01:38:36.922Z,7.08
2017-11-28T01:41:04.488Z,7.08
2017-11-28T01:43:32.095Z,7.08
2017-11-28T01:45:59.688Z,7.07
2017-11-28T01:48:27.316Z,7.03
2017-11-28T01:50:54.895Z,7.05
2017-11-28T01:53:22.517Z,7.04
2017-11-28T01:55:50.083Z,7.07
2017-11-28T01:58:17.724Z,6.98
2017-11-28T02:00:45.322Z,6.97
2017-11-28T02:03:13.003Z,6.98
2017-11-28T02:05:40.600Z,6.98
2017-11-28T02:08:08.203Z,7.01
2017-11-28T02:10:35.859Z,6.95
2017-11-28T02:13:03.470Z,7.02
2017-11-28T02:15:31.076Z,7.01
2017-11-28T02:17:58.663Z,7.00
2017-11-28T02:20:26.283Z,7.01
2017-11-28T02:22:53.869Z,7.00
2017-11-28T02:25:21.479Z,6.94
2017-11-28T02:27:49.065Z,6.97
2017-11-28T02:30:16.683Z,6.99
2017-11-28T02:32:45.059Z,6.95
2017-11-28T02:35:12.625Z,6.93
2017-11-28T02:37:40.245Z,6.92
2017-11-28T02:40:07.839Z,6.95
2017-11-28T02:42:35.410Z,6.98
2017-11-28T02:45:03.041Z,7.01
2017-11-28T02:47:30.638Z,7.03
2017-11-28T02:49:59.867Z,6.98
2017-11-28T02:52:27.491Z,6.97
2017-11-28T02:55:02.536Z,6.99
2017-11-28T02:57:30.152Z,6.97
2017-11-28T02:59:59.373Z,6.96
2017-11-28T03:02:26.948Z,6.93
2017-11-28T03:04:54.561Z,6.96
2017-11-28T03:07:22.980Z,6.90
2017-11-28T03:09:54.103Z,6.90
2017-11-28T03:12:26.256Z,6.93
2017-11-28T03:17:49.016Z,7.03
2017-11-28T03:23:24.037Z,7.09
2017-11-28T03:25:51.737Z,7.12
2017-11-28T03:28:36.802Z,7.14
2017-11-28T03:31:05.338Z,7.16
2017-11-28T03:33:33.044Z,7.17
2017-11-28T03:36:00.732Z,7.18
2017-11-28T03:38:28.339Z,7.20
2017-11-28T03:40:55.936Z,7.19
2017-11-28T03:43:23.560Z,7.19
2017-11-28T03:46:01.064Z,7.19
2017-11-28T03:48:29.368Z,7.17
2017-11-28T03:50:56.964Z,7.20
2017-11-28T03:53:24.577Z,7.19
2017-11-28T03:55:52.166Z,7.15
2017-11-28T03:58:19.797Z,7.15
2017-11-28T04:00:47.427Z,7.13
2017-11-28T04:03:15.051Z,7.14
2017-11-28T04:05:42.663Z,7.16
2017-11-28T04:08:10.264Z,7.16
2017-11-28T04:10:37.858Z,7.21
2017-11-28T04:13:05.480Z,7.21
2017-11-28T04:15:33.084Z,7.26
2017-11-28T04:18:00.707Z,7.22
2017-11-28T04:20:28.456Z,7.25
2017-11-28T04:22:56.107Z,7.23
2017-11-28T04:25:23.699Z,7.23
2017-11-28T04:27:51.405Z,7.28
2017-11-28T04:30:19.004Z,7.25
2017-11-28T04:32:46.612Z,7.26
2017-11-28T04:35:14.210Z,7.31
2017-11-28T04:37:41.837Z,7.30
2017-11-28T04:40:09.441Z,7.36
2017-11-28T04:42:37.196Z,7.36
2017-11-28T04:45:13.938Z,7.34
2017-11-28T04:50:41.246Z,7.34
2017-11-28T04:53:19.009Z,7.35
2017-11-28T04:55:46.849Z,7.36
2017-11-28T04:58:14.451Z,7.35
2017-11-28T05:00:42.066Z,7.32
2017-11-28T05:03:09.690Z,7.32
2017-11-28T05:05:37.259Z,7.32
2017-11-28T05:08:04.883Z,7.32
2017-11-28T05:10:32.480Z,7.32
2017-11-28T05:13:00.079Z,7.32
2017-11-28T05:15:27.662Z,7.35
2017-11-28T05:17:55.286Z,7.36
2017-11-28T05:20:22.856Z,7.39
2017-11-28T05:22:50.456Z,7.41
2017-11-28T05:25:18.020Z,7.43
2017-11-28T05:27:45.631Z,7.40
2017-11-28T05:30:13.216Z,7.42
2017-11-28T05:32:40.840Z,7.42
2017-11-28T05:35:08.428Z,7.40
2017-11-28T05:37:36.044Z,7.41
2017-11-28T05:40:03.630Z,7.37
2017-11-28T05:42:31.228Z,7.37
2017-11-28T05:44:58.825Z,7.37
2017-11-28T05:47:26.441Z,7.35
2017-11-28T05:49:54.022Z,7.34
2017-11-28T05:52:21.643Z,7.32
2017-11-28T05:54:49.219Z,7.30
2017-11-28T05:57:16.855Z,7.30
2017-11-28T05:59:44.437Z,7.28
2017-11-28T06:02:12.069Z,7.27
2017-11-28T06:04:39.681Z,7.28
2017-11-28T06:07:07.379Z,7.26
2017-11-28T06:09:34.960Z,7.24
2017-11-28T06:12:02.573Z,7.21
2017-11-28T06:14:30.164Z,7.18
2017-11-28T06:16:57.813Z,7.16
2017-11-28T06:19:25.387Z,7.15
2017-11-28T06:21:52.992Z,7.14
2017-11-28T06:24:20.574Z,7.13
2017-11-28T06:26:48.178Z,7.11
2017-11-28T06:29:15.788Z,7.12
2017-11-28T06:31:43.380Z,7.06
2017-11-28T06:34:11.032Z,7.04
2017-11-28T06:36:38.631Z,6.99
2017-11-28T06:39:06.183Z,6.99
2017-11-28T06:41:33.785Z,7.01
2017-11-28T06:44:01.365Z,6.99
2017-11-28T06:46:29.042Z,6.96
2017-11-28T06:48:56.657Z,6.97
2017-11-28T06:51:24.279Z,6.93
2017-11-28T06:53:51.855Z,6.91
2017-11-28T06:56:19.463Z,6.90
2017-11-28T06:58:47.106Z,6.88
2017-11-28T07:01:14.716Z,6.86
2017-11-28T07:03:42.280Z,6.81
2017-11-28T07:06:09.895Z,6.83
2017-11-28T07:08:37.488Z,6.79
2017-11-28T07:11:05.144Z,6.80
2017-11-28T07:13:32.765Z,6.79
2017-11-28T07:16:00.368Z,6.71
2017-11-28T07:18:27.946Z,6.71
2017-11-28T07:20:55.576Z,6.68
2017-11-28T07:23:23.156Z,6.68
2017-11-28T07:25:50.761Z,6.66
2017-11-28T07:28:18.380Z,6.62
2017-11-28T07:30:46.013Z,6.57
2017-11-28T07:33:13.591Z,6.57
2017-11-28T07:35:41.240Z,6.59
2017-11-28T07:38:08.807Z,6.55
2017-11-28T07:40:36.406Z,6.77
2017-11-28T07:43:03.983Z,6.74
2017-11-28T07:45:31.600Z,6.72
2017-11-28T07:47:59.168Z,6.69
2017-11-28T07:50:26.814Z,6.65
2017-11-28T07:52:54.390Z,6.62
2017-11-28T07:55:22.009Z,6.59
2017-11-28T07:57:49.607Z,6.58
2017-11-28T08:00:17.237Z,6.56
2017-11-28T08:02:44.849Z,6.56
2017-11-28T08:05:12.555Z,6.54
2017-11-28T08:07:40.132Z,6.50
2017-11-28T08:10:07.739Z,6.51
2017-11-28T08:12:35.312Z,6.48
2017-11-28T08:15:02.930Z,6.53
2017-11-28T08:17:30.504Z,6.50
2017-11-28T08:19:58.172Z,6.52
2017-11-28T08:22:25.784Z,6.56
2017-11-28T08:24:53.431Z,6.59
2017-11-28T08:27:21.020Z,6.62
2017-11-28T08:29:48.637Z,6.66
2017-11-28T08:32:16.223Z,6.71
2017-11-28T08:34:43.844Z,6.71
2017-11-28T08:37:11.500Z,6.78
2017-11-28T08:39:39.097Z,6.84
2017-11-28T08:42:06.689Z,6.87
2017-11-28T08:44:34.320Z,6.92
2017-11-28T08:47:01.896Z,6.95
2017-11-28T08:49:29.515Z,6.98
2017-11-28T08:51:57.115Z,7.04
2017-11-28T08:54:24.728Z,7.10
2017-11-28T08:56:52.307Z,7.12
2017-11-28T08:59:20.050Z,7.17
2017-11-28T09:01:47.613Z,7.23
2017-11-28T09:04:15.217Z,7.34
2017-11-28T09:06:42.792Z,7.46
2017-11-28T09:09:10.397Z,7.59
2017-11-28T09:11:38.029Z,7.67
2017-11-28T09:14:05.657Z,7.74
2017-11-28T09:16:33.281Z,7.79
2017-11-28T09:19:00.884Z,7.77
2017-11-28T09:21:28.472Z,7.66
2017-11-28T09:23:56.137Z,7.54
2017-11-28T09:26:23.732Z,7.45
2017-11-28T09:28:51.365Z,7.41
2017-11-28T09:31:18.946Z,7.49
2017-11-28T09:33:46.541Z,7.52
2017-11-28T09:36:14.123Z,7.55
2017-11-28T09:38:41.737Z,7.58
2017-11-28T09:41:09.328Z,7.67
2017-11-28T09:43:37.016Z,7.83
2017-11-28T09:46:04.601Z,7.85
2017-11-28T09:48:32.207Z,7.86
2017-11-28T09:50:59.777Z,7.82
2017-11-28T09:53:27.389Z,7.80
2017-11-28T09:55:54.978Z,7.75
2017-11-28T09:58:22.596Z,7.80
2017-11-28T10:00:50.177Z,7.84
2017-11-28T10:03:17.901Z,7.84
2017-11-28T10:05:45.469Z,7.89
2017-11-28T10:08:13.040Z,7.84
2017-11-28T10:10:40.697Z,7.84
2017-11-28T10:13:08.271Z,7.85
2017-11-28T10:15:35.903Z,7.83
2017-11-28T10:18:03.484Z,7.83
2017-11-28T10:20:31.138Z,7.86
2017-11-28T10:22:58.733Z,7.85
2017-11-28T10:25:26.341Z,7.88
2017-11-28T10:27:53.931Z,7.89
2017-11-28T10:30:21.575Z,7.84
2017-11-28T10:32:49.171Z,7.77
2017-11-28T10:35:16.773Z,7.76
2017-11-28T10:37:44.403Z,7.79
2017-11-28T10:40:11.999Z,7.81
2017-11-28T10:42:39.633Z,7.80
2017-11-28T10:45:07.220Z,7.78
2017-11-28T10:47:34.857Z,7.71
2017-11-28T10:50:02.438Z,7.71
2017-11-28T10:52:30.056Z,7.71
2017-11-28T10:54:57.652Z,7.75
2017-11-28T10:57:25.261Z,7.78
2017-11-28T10:59:52.852Z,7.77
2017-11-28T11:02:20.568Z,7.84
2017-11-28T11:04:48.148Z,7.90
2017-11-28T11:07:15.768Z,7.94
2017-11-28T11:09:43.351Z,7.97
2017-11-28T11:12:10.991Z,7.98
2017-11-28T11:14:38.612Z,8.04
2017-11-28T11:17:06.226Z,8.06
2017-11-28T11:19:33.807Z,8.08
2017-11-28T11:22:01.427Z,8.07
2017-11-28T11:24:29.000Z,8.14
2017-11-28T11:26:56.631Z,8.11
2017-11-28T11:29:24.262Z,8.07
2017-11-28T11:31:51.861Z,8.03
2017-11-28T11:34:19.560Z,8.02
2017-11-28T11:36:47.213Z,8.00
2017-11-28T11:39:14.787Z,8.01
2017-11-28T11:41:42.384Z,8.01
2017-11-28T11:44:09.959Z,8.02
2017-11-28T11:46:37.568Z,8.06
2017-11-28T11:49:05.162Z,8.05
2017-11-28T11:51:32.766Z,8.11
2017-11-28T11:54:00.428Z,8.11
2017-11-28T11:56:28.128Z,8.10
2017-11-28T11:58:55.705Z,8.12
2017-11-28T12:01:23.312Z,8.09
2017-11-28T12:03:50.880Z,8.10
2017-11-28T12:06:18.460Z,8.07
2017-11-28T12:08:46.188Z,8.08
2017-11-28T12:11:13.813Z,8.08
2017-11-28T12:13:41.396Z,8.07
2017-11-28T12:16:09.076Z,8.15
2017-11-28T12:18:36.645Z,8.16
2017-11-28T12:21:04.262Z,8.21
2017-11-28T12:23:31.845Z,8.25
2017-11-28T12:25:59.461Z,8.26
2017-11-28T12:28:27.052Z,8.31
2017-11-28T12:30:54.678Z,8.37
2017-11-28T12:33:22.283Z,8.42
2017-11-28T12:35:49.888Z,8.69
2017-11-28T12:38:17.472Z,8.67
2017-11-28T12:40:45.091Z,8.63
2017-11-28T12:43:12.679Z,8.72
2017-11-28T12:45:40.368Z,8.95
2017-11-28T12:48:07.942Z,8.95
2017-11-28T12:50:35.577Z,8.88
2017-11-28T12:53:03.152Z,8.80
2017-11-28T12:55:30.757Z,8.89
2017-11-28T12:57:58.344Z,8.61
2017-11-28T13:00:25.952Z,8.81
2017-11-28T13:02:53.531Z,8.80
2017-11-28T13:05:21.148Z,8.65
2017-11-28T13:07:48.726Z,8.56
2017-11-28T13:10:16.345Z,8.52
2017-11-28T13:12:44.080Z,8.48
2017-11-28T13:15:12.508Z,8.39
2017-11-28T13:17:40.085Z,8.38
2017-11-28T13:20:07.706Z,8.38
2017-11-28T13:22:35.373Z,8.37
2017-11-28T13:25:02.972Z,8.33
2017-11-28T13:27:30.549Z,8.27
2017-11-28T13:29:58.167Z,8.26
2017-11-28T13:32:25.746Z,8.26
2017-11-28T13:34:53.430Z,8.25
2017-11-28T13:37:21.017Z,8.41
2017-11-28T13:39:48.636Z,8.61
2017-11-28T13:42:16.227Z,8.62
2017-11-28T13:44:43.862Z,8.62
2017-11-28T13:47:11.440Z,8.50
2017-11-28T13:49:39.085Z,8.53
2017-11-28T13:52:06.661Z,8.66
2017-11-28T13:54:34.276Z,8.85
2017-11-28T13:57:01.869Z,8.85
2017-11-28T13:59:29.495Z,8.81
2017-11-28T14:01:57.092Z,8.77
2017-11-28T14:04:24.744Z,8.64
2017-11-28T14:06:52.332Z,8.60
2017-11-28T14:09:20.081Z,8.50
2017-11-28T14:11:47.669Z,8.51
2017-11-28T14:14:15.262Z,8.47
2017-11-28T14:16:42.933Z,8.47
2017-11-28T14:19:10.517Z,8.43
2017-11-28T14:21:44.532Z,8.39
2017-11-28T14:27:29.712Z,8.42
2017-11-28T14:30:12.277Z,8.39
2017-11-28T14:32:45.612Z,8.32
2017-11-28T14:35:15.047Z,8.31
2017-11-28T14:37:42.711Z,8.27
2017-11-28T14:40:10.486Z,8.27
2017-11-28T14:42:38.300Z,8.23
2017-11-28T14:45:07.812Z,8.23
2017-11-28T14:47:35.421Z,8.21
2017-11-28T14:50:03.111Z,8.20
2017-11-28T14:52:40.637Z,8.17
2017-11-28T14:55:13.850Z,8.18
2017-11-28T14:57:41.870Z,8.16
2017-11-28T15:00:15.011Z,8.13
2017-11-28T15:02:48.150Z,8.08
2017-11-28T15:05:21.277Z,8.07
2017-11-28T15:07:54.371Z,8.07
2017-11-28T15:10:27.536Z,8.06
2017-11-28T15:13:00.814Z,8.04
2017-11-28T15:15:33.921Z,8.05
2017-11-28T15:18:21.475Z,8.04
2017-11-28T15:20:59.032Z,8.05
2017-11-28T15:23:35.309Z,8.05
2017-11-28T15:26:04.870Z,8.04
2017-11-28T15:28:35.340Z,8.04
2017-11-28T15:31:05.320Z,8.03
2017-11-28T15:33:32.997Z,8.04
2017-11-28T15:36:00.682Z,8.04
2017-11-28T15:38:28.361Z,8.05
2017-11-28T15:40:56.013Z,8.04
2017-11-28T15:43:23.629Z,8.01
2017-11-28T15:45:51.294Z,8.00
2017-11-28T15:48:18.907Z,8.01
2017-11-28T15:50:46.577Z,8.02
2017-11-28T15:53:14.264Z,8.01
2017-11-28T15:55:41.958Z,8.03
2017-11-28T15:58:09.705Z,8.02
2017-11-28T16:00:37.450Z,8.01
2017-11-28T16:03:05.236Z,8.04
2017-11-28T16:05:32.873Z,7.98
2017-11-28T16:08:00.511Z,7.95
2017-11-28T16:10:28.173Z,7.94
2017-11-28T16:12:55.819Z,7.91
2017-11-28T16:15:23.432Z,7.92
2017-11-28T16:17:51.078Z,7.86
2017-11-28T16:20:18.702Z,7.85
2017-11-28T16:22:46.334Z,7.82
2017-11-28T16:25:13.954Z,7.80
2017-11-28T16:27:41.603Z,7.79
2017-11-28T16:30:09.218Z,7.79
2017-11-28T16:32:36.851Z,7.81
2017-11-28T16:35:04.573Z,7.81
2017-11-28T16:37:32.244Z,7.79
2017-11-28T16:40:00.104Z,7.73
2017-11-28T16:42:28.510Z,7.74
2017-11-28T16:44:56.165Z,7.72
2017-11-28T16:47:23.805Z,7.65
2017-11-28T16:49:52.312Z,7.61
2017-11-28T16:52:19.928Z,7.63
2017-11-28T16:54:47.648Z,7.61
2017-11-28T16:57:15.284Z,7.57
2017-11-28T16:59:44.636Z,7.51
2017-11-28T17:02:12.301Z,7.45
2017-11-28T17:04:39.959Z,7.42
2017-11-28T17:07:07.605Z,7.41
2017-11-28T17:09:35.308Z,7.41
2017-11-28T17:12:02.942Z,7.40
2017-11-28T17:14:30.633Z,7.38
2017-11-28T17:16:58.617Z,7.36
2017-11-28T17:19:26.448Z,7.26
2017-11-28T17:21:54.109Z,7.28
2017-11-28T17:24:21.798Z,7.24
2017-11-28T17:26:49.593Z,7.16
2017-11-28T17:29:17.326Z,7.12
2017-11-28T17:31:45.096Z,7.09
2017-11-28T17:34:12.769Z,7.12
2017-11-28T17:36:40.466Z,7.11
2017-11-28T17:39:08.115Z,7.13
2017-11-28T17:41:35.823Z,7.08
2017-11-28T17:44:03.522Z,7.11
2017-11-28T17:46:31.146Z,7.11
2017-11-28T17:48:58.781Z,7.12
2017-11-28T17:51:26.432Z,7.09
2017-11-28T17:53:54.159Z,7.03
2017-11-28T17:56:21.769Z,7.04
2017-11-28T17:58:49.400Z,7.04
2017-11-28T18:01:17.033Z,6.96
2017-11-28T18:03:44.688Z,6.94
2017-11-28T18:06:12.289Z,6.93
2017-11-28T18:08:39.953Z,6.92
2017-11-28T18:11:07.609Z,6.92
2017-11-28T18:13:35.251Z,6.91
2017-11-28T18:16:02.874Z,6.92
2017-11-28T18:18:30.528Z,6.90
2017-11-28T18:20:58.132Z,6.84
2017-11-28T18:23:25.809Z,6.84
2017-11-28T18:25:53.405Z,6.85
2017-11-28T18:28:21.039Z,6.83
2017-11-28T18:30:48.670Z,6.83
2017-11-28T18:33:16.437Z,6.80
2017-11-28T18:35:44.129Z,6.80
2017-11-28T18:38:11.844Z,6.77
2017-11-28T18:40:39.498Z,6.78
2017-11-28T18:43:07.176Z,6.78
2017-11-28T18:45:34.781Z,6.74
2017-11-28T18:48:02.415Z,6.70
2017-11-28T18:50:30.015Z,6.58
2017-11-28T18:52:57.686Z,6.57
2017-11-28T18:55:25.278Z,6.46
2017-11-28T18:57:52.905Z,6.42
2017-11-28T19:00:31.993Z,6.37
2017-11-28T19:02:59.663Z,6.39
2017-11-28T19:05:27.286Z,6.36
2017-11-28T19:07:54.952Z,6.30
2017-11-28T19:10:22.719Z,6.33
2017-11-28T19:12:50.367Z,6.34
2017-11-28T19:15:18.032Z,6.30
2017-11-28T19:17:45.667Z,6.27
2017-11-28T19:20:13.277Z,6.23
2017-11-28T19:22:40.966Z,6.25
2017-11-28T19:25:08.660Z,6.23
2017-11-28T19:27:36.643Z,6.25
2017-11-28T19:30:04.651Z,6.23
2017-11-28T19:32:32.652Z,6.21
2017-11-28T19:35:00.330Z,6.25
2017-11-28T19:37:27.999Z,6.23
2017-11-28T19:39:55.639Z,6.21
2017-11-28T19:42:23.452Z,6.13
2017-11-28T19:44:51.081Z,6.16
2017-11-28T19:47:18.744Z,6.18
2017-11-28T19:49:46.449Z,6.16
2017-11-28T19:52:14.181Z,6.18
2017-11-28T19:54:41.842Z,6.14
2017-11-28T19:57:09.542Z,6.22
2017-11-28T19:59:37.163Z,6.18
2017-11-28T20:02:04.796Z,6.24
2017-11-28T20:04:32.558Z,6.25
2017-11-28T20:07:00.231Z,6.22
2017-11-28T20:09:27.880Z,6.21
2017-11-28T20:11:55.552Z,6.22
2017-11-28T20:14:23.232Z,6.23
2017-11-28T20:16:51.820Z,6.29
2017-11-28T20:19:19.439Z,6.38
2017-11-28T20:21:47.264Z,6.44
2017-11-28T20:24:14.941Z,6.48
2017-11-28T20:26:42.711Z,6.48
2017-11-28T20:29:10.499Z,6.54
2017-11-28T20:31:38.197Z,6.57
2017-11-28T20:34:05.901Z,6.57
2017-11-28T20:36:33.665Z,6.55
2017-11-28T20:39:01.466Z,6.57
2017-11-28T20:41:29.278Z,6.55
2017-11-28T20:43:58.408Z,6.54
2017-11-28T20:46:27.561Z,6.55
2017-11-28T20:49:10.248Z,6.57
2017-11-28T20:51:38.037Z,6.61
2017-11-28T20:54:06.510Z,6.65
2017-11-28T20:56:34.575Z,6.63
2017-11-28T20:59:02.336Z,6.58
2017-11-28T21:01:30.220Z,6.58
2017-11-28T21:03:57.975Z,6.58
2017-11-28T21:06:27.261Z,6.57
2017-11-28T21:08:55.091Z,6.58
2017-11-28T21:11:22.874Z,6.54
2017-11-28T21:13:50.720Z,6.51
2017-11-28T21:16:18.540Z,6.46
2017-11-28T21:18:46.621Z,6.47
2017-11-28T21:21:15.775Z,6.47
2017-11-28T21:23:44.115Z,6.43
2017-11-28T21:26:14.510Z,6.40
2017-11-28T21:28:42.239Z,6.36
2017-11-28T21:31:10.053Z,6.35
2017-11-28T21:33:37.920Z,6.30
2017-11-28T21:36:05.798Z,6.30
2017-11-28T21:38:34.000Z,6.29
2017-11-28T21:41:01.890Z,6.26
2017-11-28T21:43:29.612Z,6.26
2017-11-28T21:45:57.435Z,6.27
2017-11-28T21:48:25.189Z,6.28
2017-11-28T21:50:52.873Z,6.25
2017-11-28T21:53:20.620Z,6.21
2017-11-28T21:55:48.404Z,6.18
2017-11-28T21:58:16.449Z,6.18
2017-11-28T22:00:45.134Z,6.20
2017-11-28T22:03:12.941Z,6.21
2017-11-28T22:05:40.671Z,6.24
2017-11-28T22:08:08.865Z,6.22
2017-11-28T22:10:36.752Z,6.22
2017-11-28T22:13:04.760Z,6.21
2017-11-28T22:15:33.282Z,6.20
2017-11-28T22:18:04.591Z,6.21
2017-11-28T22:20:33.468Z,6.23
2017-11-28T22:23:01.765Z,6.18
2017-11-28T22:25:30.248Z,6.16
2017-11-28T22:27:58.277Z,6.19
2017-11-28T22:30:26.168Z,6.20
2017-11-28T22:32:54.087Z,6.20
2017-11-28T22:35:22.173Z,6.15
2017-11-28T22:37:50.863Z,6.13
2017-11-28T22:40:18.776Z,6.19
2017-11-28T22:42:46.679Z,6.16
2017-11-28T22:45:14.704Z,6.21
2017-11-28T22:47:42.673Z,6.25
2017-11-28T22:50:10.609Z,6.21
2017-11-28T22:52:38.515Z,6.21
2017-11-28T22:55:06.501Z,6.18
2017-11-28T22:57:36.026Z,6.15
2017-11-28T23:00:04.044Z,6.20
2017-11-28T23:02:32.098Z,6.23
2017-11-28T23:05:00.087Z,6.26
2017-11-28T23:07:28.449Z,6.25
2017-11-28T23:09:57.241Z,6.21
2017-11-28T23:12:25.166Z,6.14
2017-11-28T23:14:53.446Z,6.17
2017-11-28T23:17:21.404Z,6.11
2017-11-28T23:19:49.387Z,6.08
2017-11-28T23:22:18.095Z,6.08
2017-11-28T23:24:46.003Z,6.06
2017-11-28T23:27:13.860Z,6.03
2017-11-28T23:29:41.738Z,6.08
2017-11-28T23:32:10.467Z,6.11
2017-11-28T23:34:38.219Z,6.14
2017-11-28T23:37:06.012Z,6.16
2017-11-28T23:39:33.734Z,6.22
2017-11-28T23:42:01.533Z,6.22
2017-11-28T23:44:29.848Z,6.22
2017-11-28T23:46:58.021Z,6.16
2017-11-28T23:49:25.866Z,6.11
2017-11-28T23:51:54.391Z,6.10
2017-11-28T23:54:22.280Z,6.08
2017-11-28T23:56:50.121Z,6.08
2017-11-28T23:59:17.951Z,6.05
